createdAt,value
2018-04-17T00:00:50.202Z,1016.24
2018-04-17T00:01:50.182Z,1016.25
2018-04-17T00:02:50.164Z,1016.28
2018-04-17T00:03:50.149Z,1016.27
2018-04-17T00:04:50.127Z,1016.27
2018-04-17T00:05:50.114Z,1016.29
2018-04-17T00:06:50.099Z,1016.30
2018-04-17T00:07:50.079Z,1016.30
2018-04-17T00:08:50.063Z,1016.28
2018-04-17T00:09:50.043Z,1016.28
2018-04-17T00:10:50.030Z,1016.27
2018-04-17T00:11:50.013Z,1016.26
2018-04-17T00:12:49.990Z,1016.31
2018-04-17T00:13:49.971Z,1016.27
2018-04-17T00:14:49.955Z,1016.29
2018-04-17T00:15:49.939Z,1016.34
2018-04-17T00:16:49.922Z,1016.34
2018-04-17T00:17:49.902Z,1016.33
2018-04-17T00:18:49.886Z,1016.35
2018-04-17T00:19:49.874Z,1016.34
2018-04-17T00:20:49.854Z,1016.38
2018-04-17T00:21:49.833Z,1016.37
2018-04-17T00:22:49.822Z,1016.37
2018-04-17T00:23:49.812Z,1016.36
2018-04-17T00:24:49.782Z,1016.38
2018-04-17T00:25:49.767Z,1016.36
2018-04-17T00:26:49.743Z,1016.41
2018-04-17T00:27:49.729Z,1016.40
2018-04-17T00:28:49.711Z,1016.39
2018-04-17T00:29:49.691Z,1016.42
2018-04-17T00:30:49.679Z,1016.40
2018-04-17T00:31:49.659Z,1016.38
2018-04-17T00:32:49.640Z,1016.35
2018-04-17T00:33:49.622Z,1016.39
2018-04-17T00:34:49.609Z,1016.36
2018-04-17T00:35:49.591Z,1016.34
2018-04-17T00:36:49.570Z,1016.38
2018-04-17T00:37:49.556Z,1016.37
2018-04-17T00:38:49.538Z,1016.35
2018-04-17T00:39:49.524Z,1016.34
2018-04-17T00:40:49.496Z,1016.35
2018-04-17T00:41:49.483Z,1016.36
2018-04-17T00:42:49.474Z,1016.35
2018-04-17T00:43:49.446Z,1016.40
2018-04-17T00:44:49.429Z,1016.40
2018-04-17T00:45:49.412Z,1016.39
2018-04-17T00:46:49.392Z,1016.39
2018-04-17T00:47:49.380Z,1016.42
2018-04-17T00:48:49.365Z,1016.39
2018-04-17T00:49:49.343Z,1016.41
2018-04-17T00:50:49.325Z,1016.43
2018-04-17T00:51:49.310Z,1016.41
2018-04-17T00:52:49.291Z,1016.45
2018-04-17T00:53:49.271Z,1016.42
2018-04-17T00:54:49.258Z,1016.44
2018-04-17T00:55:49.239Z,1016.43
2018-04-17T00:56:49.227Z,1016.45
2018-04-17T00:57:49.204Z,1016.47
2018-04-17T00:58:49.182Z,1016.49
2018-04-17T00:59:49.168Z,1016.49
2018-04-17T01:00:49.152Z,1016.51
2018-04-17T01:01:49.131Z,1016.50
2018-04-17T01:02:49.117Z,1016.55
2018-04-17T01:03:49.097Z,1016.57
2018-04-17T01:04:49.078Z,1016.61
2018-04-17T01:05:49.063Z,1016.60
2018-04-17T01:06:49.043Z,1016.62
2018-04-17T01:07:49.026Z,1016.63
2018-04-17T01:08:49.008Z,1016.65
2018-04-17T01:09:48.992Z,1016.65
2018-04-17T01:10:48.972Z,1016.62
2018-04-17T01:11:48.956Z,1016.62
2018-04-17T01:12:48.943Z,1016.63
2018-04-17T01:13:48.924Z,1016.61
2018-04-17T01:14:48.902Z,1016.63
2018-04-17T01:15:48.885Z,1016.66
2018-04-17T01:16:48.869Z,1016.65
2018-04-17T01:17:48.851Z,1016.64
2018-04-17T01:18:48.832Z,1016.68
2018-04-17T01:19:48.817Z,1016.65
2018-04-17T01:20:48.799Z,1016.65
2018-04-17T01:21:48.778Z,1016.66
2018-04-17T01:22:48.766Z,1016.67
2018-04-17T01:23:48.742Z,1016.66
2018-04-17T01:24:48.722Z,1016.70
2018-04-17T01:25:48.710Z,1016.74
2018-04-17T01:26:48.690Z,1016.72
2018-04-17T01:27:48.671Z,1016.74
2018-04-17T01:28:48.652Z,1016.77
2018-04-17T01:29:48.639Z,1016.78
2018-04-17T01:30:48.623Z,1016.76
2018-04-17T01:31:48.599Z,1016.78
2018-04-17T01:32:48.586Z,1016.77
2018-04-17T01:33:48.571Z,1016.75
2018-04-17T01:34:48.553Z,1016.78
2018-04-17T01:35:48.529Z,1016.83
2018-04-17T01:36:48.522Z,1016.86
2018-04-17T01:37:48.499Z,1016.86
2018-04-17T01:38:48.481Z,1016.86
2018-04-17T01:39:48.457Z,1016.89
2018-04-17T01:40:48.443Z,1016.89
2018-04-17T01:41:48.422Z,1016.91
2018-04-17T01:42:48.402Z,1016.92
2018-04-17T01:43:48.390Z,1016.94
2018-04-17T01:44:48.367Z,1016.93
2018-04-17T01:45:48.352Z,1016.96
2018-04-17T01:46:48.332Z,1016.95
2018-04-17T01:47:48.331Z,1016.96
2018-04-17T01:48:48.303Z,1016.95
2018-04-17T01:49:48.279Z,1016.94
2018-04-17T01:50:48.264Z,1016.97
2018-04-17T01:51:48.254Z,1016.97
2018-04-17T01:52:48.225Z,1016.94
2018-04-17T01:53:48.214Z,1016.94
2018-04-17T01:54:48.195Z,1016.92
2018-04-17T01:55:48.176Z,1016.93
2018-04-17T01:56:48.155Z,1016.92
2018-04-17T01:57:48.139Z,1016.97
2018-04-17T01:58:48.121Z,1016.96
2018-04-17T01:59:48.107Z,1016.92
2018-04-17T02:00:48.086Z,1016.91
2018-04-17T02:01:48.069Z,1016.89
2018-04-17T02:02:48.049Z,1016.94
2018-04-17T02:03:48.034Z,1016.90
2018-04-17T02:04:48.015Z,1016.87
2018-04-17T02:05:47.995Z,1016.87
2018-04-17T02:06:47.982Z,1016.91
2018-04-17T02:07:47.963Z,1016.89
2018-04-17T02:08:47.945Z,1016.88
2018-04-17T02:09:47.924Z,1016.90
2018-04-17T02:10:47.905Z,1016.87
2018-04-17T02:11:47.893Z,1016.88
2018-04-17T02:12:47.878Z,1016.87
2018-04-17T02:13:47.853Z,1016.89
2018-04-17T02:14:47.836Z,1016.89
2018-04-17T02:15:47.823Z,1016.88
2018-04-17T02:16:47.798Z,1016.93
2018-04-17T02:17:47.779Z,1016.92
2018-04-17T02:18:47.768Z,1016.95
2018-04-17T02:19:47.743Z,1016.96
2018-04-17T02:20:47.725Z,1017.03
2018-04-17T02:21:47.706Z,1017.01
2018-04-17T02:22:47.696Z,1017.02
2018-04-17T02:23:47.673Z,1017.04
2018-04-17T02:24:47.659Z,1017.04
2018-04-17T02:25:47.638Z,1017.04
2018-04-17T02:26:47.624Z,1017.03
2018-04-17T02:27:47.603Z,1017.05
2018-04-17T02:28:47.585Z,1017.09
2018-04-17T02:29:47.563Z,1017.06
2018-04-17T02:30:47.554Z,1017.05
2018-04-17T02:31:47.528Z,1017.08
2018-04-17T02:32:47.517Z,1017.09
2018-04-17T02:33:47.496Z,1017.09
2018-04-17T02:34:47.477Z,1017.10
2018-04-17T02:35:47.457Z,1017.10
2018-04-17T02:36:47.436Z,1017.07
2018-04-17T02:37:47.419Z,1017.13
2018-04-17T02:38:47.405Z,1017.11
2018-04-17T02:39:47.384Z,1017.19
2018-04-17T02:40:47.366Z,1017.17
2018-04-17T02:41:47.348Z,1017.20
2018-04-17T02:42:47.329Z,1017.21
2018-04-17T02:43:47.314Z,1017.24
2018-04-17T02:44:47.300Z,1017.25
2018-04-17T02:45:47.276Z,1017.24
2018-04-17T02:46:47.257Z,1017.26
2018-04-17T02:47:47.244Z,1017.26
2018-04-17T02:48:47.223Z,1017.26
2018-04-17T02:49:47.205Z,1017.27
2018-04-17T02:50:47.188Z,1017.28
2018-04-17T02:51:47.175Z,1017.28
2018-04-17T02:52:47.148Z,1017.31
2018-04-17T02:53:47.140Z,1017.29
2018-04-17T02:54:47.117Z,1017.36
2018-04-17T02:55:47.095Z,1017.33
2018-04-17T02:56:47.074Z,1017.31
2018-04-17T02:57:47.065Z,1017.34
2018-04-17T02:58:47.044Z,1017.27
2018-04-17T02:59:47.019Z,1017.32
2018-04-17T03:00:47.005Z,1017.31
2018-04-17T03:01:46.984Z,1017.27
2018-04-17T03:02:46.970Z,1017.25
2018-04-17T03:03:46.955Z,1017.23
2018-04-17T03:04:46.929Z,1017.26
2018-04-17T03:05:46.926Z,1017.23
2018-04-17T03:06:46.895Z,1017.21
2018-04-17T03:07:46.877Z,1017.21
2018-04-17T03:08:46.855Z,1017.18
2018-04-17T03:09:46.843Z,1017.21
2018-04-17T03:10:46.823Z,1017.18
2018-04-17T03:11:46.806Z,1017.22
2018-04-17T03:12:46.784Z,1017.23
2018-04-17T03:13:46.772Z,1017.16
2018-04-17T03:14:46.753Z,1017.17
2018-04-17T03:15:46.731Z,1017.16
2018-04-17T03:16:46.713Z,1017.17
2018-04-17T03:17:46.696Z,1017.19
2018-04-17T03:18:46.675Z,1017.20
2018-04-17T03:19:46.665Z,1017.21
2018-04-17T03:20:46.639Z,1017.22
2018-04-17T03:21:46.617Z,1017.21
2018-04-17T03:22:46.603Z,1017.21
2018-04-17T03:23:46.584Z,1017.26
2018-04-17T03:24:46.564Z,1017.23
2018-04-17T03:25:46.548Z,1017.27
2018-04-17T03:26:46.532Z,1017.28
2018-04-17T03:27:46.515Z,1017.29
2018-04-17T03:28:46.492Z,1017.25
2018-04-17T03:29:46.474Z,1017.28
2018-04-17T03:30:46.460Z,1017.29
2018-04-17T03:31:46.438Z,1017.29
2018-04-17T03:32:46.422Z,1017.27
2018-04-17T03:33:46.407Z,1017.28
2018-04-17T03:34:46.381Z,1017.26
2018-04-17T03:35:46.367Z,1017.28
2018-04-17T03:36:46.348Z,1017.27
2018-04-17T03:37:46.334Z,1017.31
2018-04-17T03:38:46.310Z,1017.30
2018-04-17T03:39:46.295Z,1017.29
2018-04-17T03:40:46.574Z,1017.28
2018-04-17T03:41:46.254Z,1017.29
2018-04-17T03:42:46.240Z,1017.29
2018-04-17T03:43:46.223Z,1017.31
2018-04-17T03:44:46.199Z,1017.33
2018-04-17T03:45:46.182Z,1017.30
2018-04-17T03:46:46.162Z,1017.27
2018-04-17T03:47:46.143Z,1017.29
2018-04-17T03:48:46.128Z,1017.31
2018-04-17T03:49:46.108Z,1017.28
2018-04-17T03:50:46.089Z,1017.30
2018-04-17T03:51:46.071Z,1017.32
2018-04-17T03:52:46.052Z,1017.32
2018-04-17T03:53:46.033Z,1017.31
2018-04-17T03:54:46.017Z,1017.28
2018-04-17T03:55:46.002Z,1017.30
2018-04-17T03:56:45.977Z,1017.31
2018-04-17T03:57:45.961Z,1017.28
2018-04-17T03:58:45.946Z,1017.31
2018-04-17T03:59:45.927Z,1017.32
2018-04-17T04:00:45.912Z,1017.28
2018-04-17T04:01:45.890Z,1017.29
2018-04-17T04:02:45.905Z,1017.28
2018-04-17T04:03:45.850Z,1017.28
2018-04-17T04:04:45.831Z,1017.26
2018-04-17T04:05:45.818Z,1017.25
2018-04-17T04:06:45.804Z,1017.23
2018-04-17T04:07:45.780Z,1017.27
2018-04-17T04:08:45.764Z,1017.27
2018-04-17T04:09:45.747Z,1017.25
2018-04-17T04:10:45.724Z,1017.25
2018-04-17T04:11:45.709Z,1017.29
2018-04-17T04:12:45.694Z,1017.31
2018-04-17T04:13:45.672Z,1017.35
2018-04-17T04:14:45.646Z,1017.34
2018-04-17T04:15:45.630Z,1017.35
2018-04-17T04:16:45.613Z,1017.39
2018-04-17T04:17:45.597Z,1017.38
2018-04-17T04:18:45.580Z,1017.35
2018-04-17T04:19:45.557Z,1017.36
2018-04-17T04:20:45.536Z,1017.36
2018-04-17T04:21:45.522Z,1017.40
2018-04-17T04:22:45.501Z,1017.43
2018-04-17T04:23:45.492Z,1017.41
2018-04-17T04:24:45.463Z,1017.47
2018-04-17T04:25:45.448Z,1017.47
2018-04-17T04:26:45.428Z,1017.47
2018-04-17T04:27:45.413Z,1017.45
2018-04-17T04:28:45.391Z,1017.51
2018-04-17T04:29:45.371Z,1017.52
2018-04-17T04:30:45.359Z,1017.52
2018-04-17T04:31:45.340Z,1017.57
2018-04-17T04:32:45.318Z,1017.56
2018-04-17T04:33:45.301Z,1017.58
2018-04-17T04:34:45.343Z,1017.61
2018-04-17T04:35:45.261Z,1017.59
2018-04-17T04:36:45.250Z,1017.58
2018-04-17T04:37:45.230Z,1017.58
2018-04-17T04:38:45.210Z,1017.60
2018-04-17T04:39:45.192Z,1017.59
2018-04-17T04:40:45.170Z,1017.64
2018-04-17T04:41:45.151Z,1017.65
2018-04-17T04:42:45.137Z,1017.64
2018-04-17T04:43:45.120Z,1017.67
2018-04-17T04:44:45.101Z,1017.66
2018-04-17T04:45:45.080Z,1017.65
2018-04-17T04:46:45.065Z,1017.68
2018-04-17T04:47:45.041Z,1017.70
2018-04-17T04:48:45.020Z,1017.73
2018-04-17T04:49:45.005Z,1017.76
2018-04-17T04:50:44.994Z,1017.74
2018-04-17T04:51:44.972Z,1017.74
2018-04-17T04:52:44.951Z,1017.78
2018-04-17T04:53:44.931Z,1017.80
2018-04-17T04:54:44.910Z,1017.83
2018-04-17T04:55:44.891Z,1017.82
2018-04-17T04:56:44.872Z,1017.83
2018-04-17T04:57:44.893Z,1017.87
2018-04-17T04:58:44.837Z,1017.87
2018-04-17T04:59:44.825Z,1017.88
2018-04-17T05:00:44.800Z,1017.85
2018-04-17T05:01:44.795Z,1017.91
2018-04-17T05:02:44.771Z,1017.89
2018-04-17T05:03:44.744Z,1017.91
2018-04-17T05:04:44.738Z,1017.92
2018-04-17T05:05:44.720Z,1017.91
2018-04-17T05:06:44.690Z,1017.93
2018-04-17T05:07:44.672Z,1017.97
2018-04-17T05:08:44.652Z,1017.96
2018-04-17T05:09:44.643Z,1017.98
2018-04-17T05:10:44.619Z,1018.00
2018-04-17T05:11:44.595Z,1018.00
2018-04-17T05:12:44.588Z,1018.01
2018-04-17T05:13:44.562Z,1018.05
2018-04-17T05:14:44.539Z,1018.06
2018-04-17T05:15:44.523Z,1018.06
2018-04-17T05:16:44.512Z,1018.09
2018-04-17T05:17:44.485Z,1018.15
2018-04-17T05:18:44.469Z,1018.14
2018-04-17T05:19:44.466Z,1018.17
2018-04-17T05:20:44.430Z,1018.14
2018-04-17T05:21:44.422Z,1018.14
2018-04-17T05:22:44.397Z,1018.17
2018-04-17T05:23:44.432Z,1018.20
2018-04-17T05:24:44.358Z,1018.19
2018-04-17T05:25:44.341Z,1018.22
2018-04-17T05:26:44.318Z,1018.27
2018-04-17T05:27:44.305Z,1018.31
2018-04-17T05:28:44.283Z,1018.28
2018-04-17T05:29:44.262Z,1018.31
2018-04-17T05:30:44.250Z,1018.38
2018-04-17T05:31:44.244Z,1018.44
2018-04-17T05:32:44.211Z,1018.45
2018-04-17T05:33:44.187Z,1018.48
2018-04-17T05:34:44.221Z,1018.51
2018-04-17T05:35:44.153Z,1018.54
2018-04-17T05:36:44.131Z,1018.58
2018-04-17T05:37:44.114Z,1018.57
2018-04-17T05:38:44.099Z,1018.60
2018-04-17T05:39:44.078Z,1018.63
2018-04-17T05:40:44.057Z,1018.64
2018-04-17T05:41:44.040Z,1018.64
2018-04-17T05:42:44.024Z,1018.66
2018-04-17T05:43:44.002Z,1018.69
2018-04-17T05:44:43.983Z,1018.71
2018-04-17T05:45:43.972Z,1018.73
2018-04-17T05:46:43.948Z,1018.75
2018-04-17T05:47:44.007Z,1018.78
2018-04-17T05:48:43.912Z,1018.77
2018-04-17T05:49:43.892Z,1018.82
2018-04-17T05:50:43.882Z,1018.81
2018-04-17T05:51:43.854Z,1018.82
2018-04-17T05:52:43.837Z,1018.80
2018-04-17T05:53:43.821Z,1018.83
2018-04-17T05:54:43.803Z,1018.80
2018-04-17T05:55:43.804Z,1018.82
2018-04-17T05:56:43.763Z,1018.84
2018-04-17T05:57:43.755Z,1018.84
2018-04-17T05:58:43.731Z,1018.94
2018-04-17T05:59:43.712Z,1018.97
2018-04-17T06:00:43.693Z,1019.02
2018-04-17T06:01:43.672Z,1019.03
2018-04-17T06:02:43.654Z,1019.05
2018-04-17T06:03:43.641Z,1019.09
2018-04-17T06:04:43.617Z,1019.11
2018-04-17T06:05:43.604Z,1019.09
2018-04-17T06:06:43.588Z,1019.08
2018-04-17T06:07:43.561Z,1019.07
2018-04-17T06:08:43.547Z,1019.04
2018-04-17T06:09:43.522Z,1019.02
2018-04-17T06:10:43.506Z,1019.04
2018-04-17T06:11:43.494Z,1019.02
2018-04-17T06:12:43.468Z,1019.00
2018-04-17T06:13:43.467Z,1019.01
2018-04-17T06:14:43.432Z,1019.02
2018-04-17T06:15:43.417Z,1019.05
2018-04-17T06:16:43.396Z,1019.05
2018-04-17T06:17:43.379Z,1019.08
2018-04-17T06:18:43.364Z,1019.09
2018-04-17T06:19:43.340Z,1019.11
2018-04-17T06:20:43.324Z,1019.16
2018-04-17T06:21:43.310Z,1019.15
2018-04-17T06:22:43.286Z,1019.14
2018-04-17T06:23:43.271Z,1019.13
2018-04-17T06:24:43.250Z,1019.12
2018-04-17T06:25:43.236Z,1019.13
2018-04-17T06:26:43.212Z,1019.11
2018-04-17T06:27:43.201Z,1019.09
2018-04-17T06:28:43.181Z,1019.10
2018-04-17T06:29:43.159Z,1019.11
2018-04-17T06:30:43.142Z,1019.10
2018-04-17T06:31:43.126Z,1019.12
2018-04-17T06:32:43.105Z,1019.15
2018-04-17T06:33:43.100Z,1019.13
2018-04-17T06:34:43.075Z,1019.18
2018-04-17T06:35:43.053Z,1019.19
2018-04-17T06:36:43.032Z,1019.19
2018-04-17T06:37:43.015Z,1019.21
2018-04-17T06:38:42.999Z,1019.23
2018-04-17T06:39:42.979Z,1019.23
2018-04-17T06:40:42.963Z,1019.22
2018-04-17T06:41:42.979Z,1019.22
2018-04-17T06:42:42.928Z,1019.17
2018-04-17T06:43:42.905Z,1019.22
2018-04-17T06:44:42.890Z,1019.24
2018-04-17T06:45:42.873Z,1019.25
2018-04-17T06:46:42.855Z,1019.26
2018-04-17T06:47:42.974Z,1019.24
2018-04-17T06:48:42.824Z,1019.28
2018-04-17T06:49:42.803Z,1019.26
2018-04-17T06:50:42.783Z,1019.27
2018-04-17T06:51:42.819Z,1019.26
2018-04-17T06:52:42.815Z,1019.24
2018-04-17T06:53:42.728Z,1019.27
2018-04-17T06:54:42.712Z,1019.25
2018-04-17T06:55:42.696Z,1019.27
2018-04-17T06:56:42.679Z,1019.28
2018-04-17T06:57:42.661Z,1019.21
2018-04-17T06:58:42.638Z,1019.27
2018-04-17T06:59:42.629Z,1019.23
2018-04-17T07:00:42.618Z,1019.29
2018-04-17T07:01:42.588Z,1019.33
2018-04-17T07:02:42.572Z,1019.34
2018-04-17T07:03:42.555Z,1019.33
2018-04-17T07:04:42.535Z,1019.35
2018-04-17T07:05:42.517Z,1019.37
2018-04-17T07:06:42.503Z,1019.39
2018-04-17T07:07:42.492Z,1019.40
2018-04-17T07:08:42.472Z,1019.35
2018-04-17T07:09:42.448Z,1019.39
2018-04-17T07:10:42.430Z,1019.42
2018-04-17T07:11:42.449Z,1019.41
2018-04-17T07:12:42.404Z,1019.41
2018-04-17T07:13:42.378Z,1019.40
2018-04-17T07:14:42.362Z,1019.40
2018-04-17T07:15:42.342Z,1019.43
2018-04-17T07:16:42.330Z,1019.39
2018-04-17T07:17:42.315Z,1019.39
2018-04-17T07:18:42.291Z,1019.45
2018-04-17T07:19:42.275Z,1019.47
2018-04-17T07:20:42.263Z,1019.43
2018-04-17T07:21:42.246Z,1019.43
2018-04-17T07:22:42.223Z,1019.48
2018-04-17T07:23:42.262Z,1019.50
2018-04-17T07:24:42.190Z,1019.48
2018-04-17T07:25:42.173Z,1019.48
2018-04-17T07:26:42.153Z,1019.47
2018-04-17T07:27:42.143Z,1019.47
2018-04-17T07:28:42.116Z,1019.46
2018-04-17T07:29:42.104Z,1019.48
2018-04-17T07:30:42.104Z,1019.50
2018-04-17T07:31:42.071Z,1019.48
2018-04-17T07:32:42.052Z,1019.48
2018-04-17T07:33:42.033Z,1019.52
2018-04-17T07:34:42.042Z,1019.54
2018-04-17T07:35:41.999Z,1019.56
2018-04-17T07:36:41.983Z,1019.59
2018-04-17T07:37:41.964Z,1019.61
2018-04-17T07:38:41.949Z,1019.62
2018-04-17T07:39:41.933Z,1019.68
2018-04-17T07:40:41.915Z,1019.69
2018-04-17T07:41:41.896Z,1019.68
2018-04-17T07:42:41.880Z,1019.73
2018-04-17T07:43:41.864Z,1019.75
2018-04-17T07:44:41.852Z,1019.76
2018-04-17T07:45:41.828Z,1019.76
2018-04-17T07:46:41.813Z,1019.75
2018-04-17T07:47:41.802Z,1019.72
2018-04-17T07:48:41.782Z,1019.76
2018-04-17T07:49:41.762Z,1019.75
2018-04-17T07:50:41.744Z,1019.79
2018-04-17T07:51:41.743Z,1019.76
2018-04-17T07:52:41.714Z,1019.72
2018-04-17T07:53:41.695Z,1019.74
2018-04-17T07:54:41.688Z,1019.71
2018-04-17T07:55:41.683Z,1019.72
2018-04-17T07:56:41.647Z,1019.75
2018-04-17T07:57:41.631Z,1019.73
2018-04-17T07:58:41.613Z,1019.77
2018-04-17T07:59:41.596Z,1019.76
2018-04-17T08:00:41.583Z,1019.78
2018-04-17T08:01:41.573Z,1019.79
2018-04-17T08:02:41.548Z,1019.80
2018-04-17T08:03:41.537Z,1019.81
2018-04-17T08:04:41.513Z,1019.84
2018-04-17T08:05:41.498Z,1019.88
2018-04-17T08:06:41.483Z,1019.91
2018-04-17T08:07:41.466Z,1019.92
2018-04-17T08:08:41.446Z,1019.99
2018-04-17T08:09:41.433Z,1019.97
2018-04-17T08:10:41.417Z,1020.02
2018-04-17T08:11:41.405Z,1020.01
2018-04-17T08:12:41.384Z,1020.00
2018-04-17T08:13:41.374Z,1020.01
2018-04-17T08:14:41.357Z,1020.02
2018-04-17T08:15:41.335Z,1020.05
2018-04-17T08:16:41.321Z,1020.07
2018-04-17T08:17:41.322Z,1020.12
2018-04-17T08:18:41.300Z,1020.13
2018-04-17T08:19:41.274Z,1020.12
2018-04-17T08:20:41.252Z,1020.17
2018-04-17T08:21:41.241Z,1020.12
2018-04-17T08:22:41.220Z,1020.12
2018-04-17T08:23:41.213Z,1020.14
2018-04-17T08:24:41.186Z,1020.15
2018-04-17T08:25:41.170Z,1020.16
2018-04-17T08:26:41.158Z,1020.13
2018-04-17T08:27:41.140Z,1020.16
2018-04-17T08:28:41.123Z,1020.16
2018-04-17T08:29:41.106Z,1020.17
2018-04-17T08:30:41.092Z,1020.17
2018-04-17T08:31:41.080Z,1020.17
2018-04-17T08:32:41.061Z,1020.20
2018-04-17T08:33:41.042Z,1020.16
2018-04-17T08:34:41.034Z,1020.18
2018-04-17T08:35:41.014Z,1020.19
2018-04-17T08:36:40.997Z,1020.21
2018-04-17T08:37:40.981Z,1020.22
2018-04-17T08:38:40.963Z,1020.22
2018-04-17T08:39:40.949Z,1020.24
2018-04-17T08:40:40.938Z,1020.25
2018-04-17T08:41:40.917Z,1020.20
2018-04-17T08:42:40.914Z,1020.23
2018-04-17T08:43:40.887Z,1020.22
2018-04-17T08:44:40.875Z,1020.19
2018-04-17T08:45:40.857Z,1020.16
2018-04-17T08:46:40.840Z,1020.15
2018-04-17T08:47:40.827Z,1020.18
2018-04-17T08:48:40.809Z,1020.13
2018-04-17T08:49:40.791Z,1020.15
2018-04-17T08:50:40.777Z,1020.11
2018-04-17T08:51:40.759Z,1020.11
2018-04-17T08:52:40.790Z,1020.13
2018-04-17T08:53:40.730Z,1020.12
2018-04-17T08:54:40.712Z,1020.18
2018-04-17T08:55:40.697Z,1020.15
2018-04-17T08:56:40.689Z,1020.19
2018-04-17T08:57:40.667Z,1020.18
2018-04-17T08:58:40.653Z,1020.16
2018-04-17T08:59:40.643Z,1020.20
2018-04-17T09:00:40.618Z,1020.21
2018-04-17T09:01:40.607Z,1020.20
2018-04-17T09:02:40.597Z,1020.20
2018-04-17T09:03:40.579Z,1020.19
2018-04-17T09:04:40.567Z,1020.18
2018-04-17T09:05:40.540Z,1020.16
2018-04-17T09:06:40.527Z,1020.21
2018-04-17T09:07:40.516Z,1020.19
2018-04-17T09:08:40.502Z,1020.18
2018-04-17T09:09:40.491Z,1020.23
2018-04-17T09:10:40.465Z,1020.21
2018-04-17T09:11:40.455Z,1020.24
2018-04-17T09:12:40.438Z,1020.22
2018-04-17T09:13:40.425Z,1020.22
2018-04-17T09:14:40.411Z,1020.20
2018-04-17T09:15:40.391Z,1020.16
2018-04-17T09:16:40.374Z,1020.18
2018-04-17T09:17:40.362Z,1020.16
2018-04-17T09:18:40.352Z,1020.13
2018-04-17T09:19:40.334Z,1020.16
2018-04-17T09:20:40.322Z,1020.15
2018-04-17T09:21:40.305Z,1020.18
2018-04-17T09:22:40.297Z,1020.18
2018-04-17T09:23:40.272Z,1020.18
2018-04-17T09:24:40.257Z,1020.16
2018-04-17T09:25:40.241Z,1020.14
2018-04-17T09:26:40.233Z,1020.13
2018-04-17T09:27:40.225Z,1020.07
2018-04-17T09:28:40.197Z,1020.09
2018-04-17T09:29:40.189Z,1020.12
2018-04-17T09:30:40.176Z,1020.08
2018-04-17T09:31:40.155Z,1020.12
2018-04-17T09:32:40.141Z,1020.12
2018-04-17T09:33:40.126Z,1020.08
2018-04-17T09:34:40.115Z,1020.10
2018-04-17T09:35:40.093Z,1020.03
2018-04-17T09:36:40.085Z,1019.97
2018-04-17T09:37:40.067Z,1020.01
2018-04-17T09:38:40.057Z,1019.99
2018-04-17T09:39:40.045Z,1020.01
2018-04-17T09:40:40.020Z,1020.00
2018-04-17T09:41:40.005Z,1020.00
2018-04-17T09:42:39.991Z,1020.03
2018-04-17T09:43:39.976Z,1020.07
2018-04-17T09:44:39.968Z,1020.01
2018-04-17T09:45:39.947Z,1020.02
2018-04-17T09:46:39.934Z,1020.03
2018-04-17T09:47:39.919Z,1019.99
2018-04-17T09:48:39.907Z,1019.97
2018-04-17T09:49:39.889Z,1019.98
2018-04-17T09:50:39.959Z,1019.98
2018-04-17T09:51:39.860Z,1019.98
2018-04-17T09:52:39.844Z,1019.96
2018-04-17T09:53:39.831Z,1020.01
2018-04-17T09:54:39.819Z,1020.05
2018-04-17T09:55:39.799Z,1020.03
2018-04-17T09:56:39.783Z,1020.08
2018-04-17T09:57:39.772Z,1020.06
2018-04-17T09:58:39.757Z,1020.09
2018-04-17T09:59:39.743Z,1020.08
2018-04-17T10:00:39.731Z,1020.05
2018-04-17T10:01:39.716Z,1020.09
2018-04-17T10:02:39.698Z,1020.11
2018-04-17T10:03:39.736Z,1020.08
2018-04-17T10:04:39.671Z,1020.07
2018-04-17T10:05:39.664Z,1020.12
2018-04-17T10:06:39.644Z,1020.12
2018-04-17T10:07:39.631Z,1020.14
2018-04-17T10:08:39.611Z,1020.13
2018-04-17T10:09:39.604Z,1020.15
2018-04-17T10:10:39.589Z,1020.14
2018-04-17T10:11:39.576Z,1020.13
2018-04-17T10:12:39.560Z,1020.16
2018-04-17T10:13:39.541Z,1020.14
2018-04-17T10:14:39.538Z,1020.15
2018-04-17T10:15:39.513Z,1020.16
2018-04-17T10:16:39.501Z,1020.16
2018-04-17T10:17:39.495Z,1020.12
2018-04-17T10:18:39.468Z,1020.05
2018-04-17T10:19:39.454Z,1020.09
2018-04-17T10:20:39.443Z,1020.13
2018-04-17T10:21:39.430Z,1020.11
2018-04-17T10:22:39.423Z,1020.15
2018-04-17T10:23:39.398Z,1020.16
2018-04-17T10:24:39.382Z,1020.05
2018-04-17T10:25:39.372Z,1020.11
2018-04-17T10:26:39.367Z,1020.13
2018-04-17T10:27:39.342Z,1020.09
2018-04-17T10:28:39.328Z,1020.11
2018-04-17T10:29:39.323Z,1020.16
2018-04-17T10:30:39.296Z,1020.14
2018-04-17T10:31:39.283Z,1020.12
2018-04-17T10:32:39.270Z,1020.09
2018-04-17T10:33:39.258Z,1020.13
2018-04-17T10:34:39.250Z,1020.09
2018-04-17T10:35:39.227Z,1020.10
2018-04-17T10:36:39.211Z,1020.09
2018-04-17T10:37:39.201Z,1020.05
2018-04-17T10:38:39.184Z,1020.08
2018-04-17T10:39:39.186Z,1020.06
2018-04-17T10:40:39.153Z,1020.04
2018-04-17T10:41:39.139Z,1020.03
2018-04-17T10:42:39.134Z,1020.07
2018-04-17T10:43:39.112Z,1020.07
2018-04-17T10:44:39.113Z,1020.07
2018-04-17T10:45:39.129Z,1020.09
2018-04-17T10:46:39.069Z,1020.11
2018-04-17T10:47:39.062Z,1020.08
2018-04-17T10:48:39.043Z,1020.12
2018-04-17T10:49:39.032Z,1020.04
2018-04-17T10:50:39.013Z,1020.05
2018-04-17T10:51:39.004Z,1020.07
2018-04-17T10:52:38.987Z,1020.03
2018-04-17T10:53:38.979Z,1020.06
2018-04-17T10:54:38.963Z,1020.01
2018-04-17T10:55:38.952Z,1019.99
2018-04-17T10:56:38.933Z,1019.98
2018-04-17T10:57:38.920Z,1019.97
2018-04-17T10:58:38.906Z,1019.98
2018-04-17T10:59:38.889Z,1019.93
2018-04-17T11:00:38.889Z,1019.86
2018-04-17T11:01:38.863Z,1019.86
2018-04-17T11:02:38.848Z,1019.88
2018-04-17T11:03:38.832Z,1019.88
2018-04-17T11:04:38.824Z,1019.84
2018-04-17T11:05:38.809Z,1019.84
2018-04-17T11:06:38.797Z,1019.94
2018-04-17T11:07:38.780Z,1019.91
2018-04-17T11:08:38.773Z,1019.87
2018-04-17T11:09:38.757Z,1019.93
2018-04-17T11:10:38.754Z,1019.86
2018-04-17T11:11:38.724Z,1019.87
2018-04-17T11:12:38.710Z,1019.88
2018-04-17T11:13:38.701Z,1019.85
2018-04-17T11:14:38.684Z,1019.86
2018-04-17T11:15:38.670Z,1019.80
2018-04-17T11:16:38.652Z,1019.85
2018-04-17T11:17:38.646Z,1019.75
2018-04-17T11:18:38.631Z,1019.82
2018-04-17T11:19:38.619Z,1019.81
2018-04-17T11:20:38.601Z,1019.87
2018-04-17T11:21:38.589Z,1019.84
2018-04-17T11:22:38.573Z,1019.85
2018-04-17T11:23:38.569Z,1019.80
2018-04-17T11:24:38.547Z,1019.77
2018-04-17T11:25:38.532Z,1019.79
2018-04-17T11:26:38.525Z,1019.76
2018-04-17T11:27:38.504Z,1019.72
2018-04-17T11:28:38.495Z,1019.79
2018-04-17T11:29:38.480Z,1019.79
2018-04-17T11:30:38.465Z,1019.78
2018-04-17T11:31:38.447Z,1019.82
2018-04-17T11:32:38.442Z,1019.78
2018-04-17T11:33:38.427Z,1019.80
2018-04-17T11:34:38.493Z,1019.80
2018-04-17T11:35:38.400Z,1019.79
2018-04-17T11:36:38.383Z,1019.79
2018-04-17T11:37:38.367Z,1019.84
2018-04-17T11:38:38.361Z,1019.81
2018-04-17T11:39:38.347Z,1019.79
2018-04-17T11:40:38.330Z,1019.81
2018-04-17T11:41:38.314Z,1019.76
2018-04-17T11:42:38.303Z,1019.81
2018-04-17T11:43:38.298Z,1019.76
2018-04-17T11:44:38.274Z,1019.77
2018-04-17T11:45:38.264Z,1019.81
2018-04-17T11:46:38.257Z,1019.75
2018-04-17T11:47:38.233Z,1019.72
2018-04-17T11:48:38.241Z,1019.69
2018-04-17T11:49:38.209Z,1019.76
2018-04-17T11:50:38.197Z,1019.76
2018-04-17T11:51:38.185Z,1019.76
2018-04-17T11:52:38.173Z,1019.75
2018-04-17T11:53:38.153Z,1019.75
2018-04-17T11:54:38.145Z,1019.70
2018-04-17T11:55:38.132Z,1019.69
2018-04-17T11:56:38.112Z,1019.75
2018-04-17T11:57:38.103Z,1019.67
2018-04-17T11:58:38.088Z,1019.68
2018-04-17T11:59:38.082Z,1019.69
2018-04-17T12:00:38.065Z,1019.69
2018-04-17T12:01:38.045Z,1019.72
2018-04-17T12:02:38.038Z,1019.69
2018-04-17T12:03:38.023Z,1019.69
2018-04-17T12:04:38.008Z,1019.73
2018-04-17T12:05:38.005Z,1019.73